Time;durP1;ratioP1;P1;durP2;ratioP2;P2;SDS_P1;SDS_P2;PMS_P1;PMS_P2;Temp;Humidity;BMP_temperature;BMP_pressure;BME280_temperature;BME280_humidity;BME280_pressure;Samples;Min_cycle;Max_cycle;Signal;HPM_P1;HPM_P2
2021/08/03 00:00:14;;;;;;;8.77;7.87;;;13.40;99.90;;;;;;5025837;28;20487;-38
2021/08/03 00:02:44;;;;;;;8.30;7.50;;;13.40;99.90;;;;;;5028422;28;20433;-37
2021/08/03 00:05:13;;;;;;;8.50;7.47;;;13.40;99.90;;;;;;5038196;28;20215;-37
2021/08/03 00:07:39;;;;;;;10.27;7.60;;;13.50;99.90;;;;;;5044121;28;20516;-37
2021/08/03 00:10:06;;;;;;;7.20;6.40;;;13.40;99.90;;;;;;5030115;28;20884;-38
2021/08/03 00:12:32;;;;;;;10.47;6.97;;;13.50;99.90;;;;;;5031788;28;20452;-37
2021/08/03 00:14:58;;;;;;;7.70;7.00;;;13.50;99.90;;;;;;5028328;28;21226;-38
2021/08/03 00:17:25;;;;;;;8.30;7.43;;;13.50;99.90;;;;;;5030848;28;20597;-37
2021/08/03 00:19:54;;;;;;;7.20;6.10;;;13.50;99.90;;;;;;5040088;28;20448;-38
2021/08/03 00:22:23;;;;;;;12.70;6.90;;;13.50;99.90;;;;;;5039231;28;20465;-37
2021/08/03 00:24:50;;;;;;;7.80;7.00;;;13.40;99.90;;;;;;5027800;28;20939;-37
2021/08/03 00:27:16;;;;;;;6.47;5.77;;;13.40;99.90;;;;;;5028760;28;20425;-37
2021/08/03 00:29:42;;;;;;;7.30;6.60;;;13.30;99.90;;;;;;5034350;28;20981;-37
2021/08/03 00:32:08;;;;;;;7.67;6.90;;;13.30;99.90;;;;;;5029688;28;20449;-38
2021/08/03 00:34:37;;;;;;;8.30;7.10;;;13.10;99.90;;;;;;5027994;28;20198;-37
2021/08/03 00:37:06;;;;;;;8.70;6.80;;;13.10;99.90;;;;;;5029686;28;20433;-37
2021/08/03 00:39:32;;;;;;;10.03;7.63;;;13.10;99.90;;;;;;5027994;28;20431;-37
2021/08/03 00:42:03;;;;;;;7.90;6.73;;;13.20;99.90;;;;;;5038255;28;20468;-37
2021/08/03 00:44:49;;;;;;;10.63;8.60;;;13.20;99.90;;;;;;5027341;28;20487;-37
2021/08/03 00:47:17;;;;;;;10.97;7.97;;;13.30;99.90;;;;;;5035254;28;20503;-37
2021/08/03 00:49:43;;;;;;;7.10;6.40;;;13.40;99.90;;;;;;5034369;28;21217;-37
2021/08/03 00:52:11;;;;;;;9.10;7.00;;;13.40;99.90;;;;;;5037657;28;20424;-37
2021/08/03 00:54:37;;;;;;;9.90;7.30;;;13.40;99.90;;;;;;5027169;28;20448;-37
2021/08/03 00:57:05;;;;;;;7.90;7.10;;;13.40;99.90;;;;;;5031266;28;20479;-37
2021/08/03 00:59:31;;;;;;;8.60;7.73;;;13.40;99.90;;;;;;5027750;28;20421;-37
2021/08/03 01:01:56;;;;;;;9.53;7.33;;;13.30;99.90;;;;;;5027238;28;20940;-37
2021/08/03 01:04:22;;;;;;;8.70;6.57;;;13.30;99.90;;;;;;5038202;28;20194;-37
2021/08/03 01:07:07;;;;;;;8.87;6.80;;;13.20;99.90;;;;;;5041648;28;20185;-37
2021/08/03 01:09:37;;;;;;;10.67;7.37;;;13.20;99.90;;;;;;5028151;28;20267;-37
2021/08/03 01:12:16;;;;;;;8.83;7.60;;;13.10;99.90;;;;;;5028622;28;20422;-37
2021/08/03 01:14:56;;;;;;;7.57;6.87;;;13.10;99.90;;;;;;5027419;28;20508;-37
2021/08/03 01:17:43;;;;;;;9.33;7.83;;;13.10;99.90;;;;;;5030007;28;20554;-37
2021/08/03 01:20:15;;;;;;;9.90;7.63;;;13.10;99.90;;;;;;5035597;28;20420;-37
2021/08/03 01:22:52;;;;;;;9.07;8.17;;;13.10;99.90;;;;;;5030536;28;20417;-37
2021/08/03 01:25:31;;;;;;;8.37;7.60;;;13.00;99.90;;;;;;5027451;28;20478;-37
2021/08/03 01:28:25;;;;;;;10.07;8.23;;;13.00;99.90;;;;;;5037848;28;20507;-37
2021/08/03 01:31:06;;;;;;;8.63;7.83;;;13.00;99.90;;;;;;5031437;28;20417;-37
2021/08/03 01:33:34;;;;;;;8.37;7.57;;;13.10;99.90;;;;;;5029758;28;20446;-37
2021/08/03 01:36:01;;;;;;;9.27;7.47;;;13.10;99.90;;;;;;5031682;28;20416;-38
2021/08/03 01:38:29;;;;;;;8.93;7.93;;;13.10;99.90;;;;;;5029544;28;20958;-37
2021/08/03 01:41:00;;;;;;;9.70;8.23;;;13.00;99.90;;;;;;5029513;28;20526;-37
2021/08/03 01:43:27;;;;;;;9.10;7.60;;;13.00;99.90;;;;;;5028747;28;20425;-37
2021/08/03 01:45:55;;;;;;;9.33;8.43;;;12.90;99.90;;;;;;5029822;28;20421;-37
2021/08/03 01:48:23;;;;;;;8.77;7.83;;;12.80;99.90;;;;;;5038313;28;20436;-37
2021/08/03 01:50:49;;;;;;;10.23;8.27;;;12.60;99.90;;;;;;5048655;28;20428;-37
2021/08/03 01:53:19;;;;;;;9.00;8.10;;;12.60;99.90;;;;;;5039833;28;20432;-37
2021/08/03 01:55:46;;;;;;;10.57;8.57;;;12.70;99.90;;;;;;5031363;28;20429;-37
2021/08/03 01:58:14;;;;;;;11.03;8.93;;;12.80;99.90;;;;;;5031263;28;20519;-37
2021/08/03 02:00:42;;;;;;;9.00;8.10;;;12.80;99.90;;;;;;5030973;28;20503;-37
2021/08/03 02:03:10;;;;;;;9.83;7.90;;;12.90;99.90;;;;;;5032007;28;20432;-37
2021/08/03 02:05:40;;;;;;;11.90;8.73;;;13.00;99.90;;;;;;5043012;28;20411;-37
2021/08/03 02:08:07;;;;;;;12.30;9.00;;;13.10;99.90;;;;;;5030709;28;20946;-37
2021/08/03 02:10:35;;;;;;;10.80;9.10;;;13.10;99.90;;;;;;5030900;28;21148;-37
2021/08/03 02:13:02;;;;;;;12.73;8.50;;;13.00;99.90;;;;;;5041101;28;20444;-37
2021/08/03 02:15:28;;;;;;;8.80;7.90;;;13.00;99.90;;;;;;5029274;28;20428;-37
2021/08/03 02:17:54;;;;;;;10.77;8.73;;;13.00;99.90;;;;;;5031011;28;20445;-37
2021/08/03 02:20:20;;;;;;;9.50;8.50;;;13.00;99.90;;;;;;5036028;28;21208;-37
2021/08/03 02:22:45;;;;;;;9.13;8.00;;;13.00;99.90;;;;;;5038326;28;20195;-37
2021/08/03 02:25:12;;;;;;;8.27;7.43;;;13.00;99.90;;;;;;5030522;28;20225;-37
2021/08/03 02:27:38;;;;;;;8.27;7.47;;;12.90;99.90;;;;;;5036581;28;20217;-37
2021/08/03 02:30:06;;;;;;;12.40;8.87;;;12.80;99.90;;;;;;5039268;28;20485;-38
2021/08/03 02:32:45;;;;;;;11.10;8.70;;;12.80;99.90;;;;;;5029920;28;20437;-37
2021/08/03 02:35:21;;;;;;;10.20;8.60;;;12.90;99.90;;;;;;5030845;28;20421;-37
2021/08/03 02:37:52;;;;;;;8.43;7.63;;;12.90;99.90;;;;;;5039093;28;21107;-38
2021/08/03 02:40:18;;;;;;;9.00;8.10;;;12.80;99.90;;;;;;5030472;28;20433;-38
2021/08/03 02:42:45;;;;;;;8.67;7.77;;;12.80;99.90;;;;;;5032460;28;20793;-37
2021/08/03 02:45:16;;;;;;;10.07;8.57;;;12.80;99.90;;;;;;5029889;28;20425;-37
2021/08/03 02:47:47;;;;;;;8.40;7.47;;;12.90;99.90;;;;;;5029627;28;20750;-37
2021/08/03 02:50:15;;;;;;;10.50;8.43;;;13.00;99.90;;;;;;5038410;28;20422;-37
2021/08/03 02:52:44;;;;;;;10.10;8.47;;;13.00;99.90;;;;;;5037250;28;20779;-37
2021/08/03 02:55:34;;;;;;;9.20;8.27;;;13.00;99.90;;;;;;5036972;28;20840;-37
2021/08/03 02:58:07;;;;;;;9.10;8.13;;;13.10;99.90;;;;;;5044988;28;20428;-37
2021/08/03 03:00:35;;;;;;;10.40;9.37;;;13.00;99.90;;;;;;5029966;28;21145;-37
2021/08/03 03:03:07;;;;;;;7.97;7.17;;;12.90;99.90;;;;;;5029361;28;20421;-37
2021/08/03 03:05:36;;;;;;;9.60;8.23;;;12.90;99.90;;;;;;5036732;28;20449;-37
2021/08/03 03:08:09;;;;;;;8.87;7.97;;;13.00;99.90;;;;;;5033049;28;20429;-37
2021/08/03 03:10:41;;;;;;;7.63;7.00;;;13.00;99.90;;;;;;5029800;28;20941;-37
2021/08/03 03:13:33;;;;;;;8.30;7.50;;;13.10;99.90;;;;;;5036165;28;20449;-38
2021/08/03 03:16:01;;;;;;;8.90;8.00;;;13.10;99.90;;;;;;5018542;28;21129;-37
2021/08/03 03:18:28;;;;;;;8.73;7.93;;;13.10;99.90;;;;;;5028367;28;20524;-37
2021/08/03 03:20:54;;;;;;;8.53;7.70;;;13.10;99.90;;;;;;5040621;28;20472;-37
2021/08/03 03:23:23;;;;;;;9.27;7.90;;;13.20;99.90;;;;;;5043742;28;20428;-37
2021/08/03 03:25:52;;;;;;;8.70;7.80;;;13.10;99.90;;;;;;5029368;28;20433;-37
2021/08/03 03:28:29;;;;;;;8.97;8.00;;;13.20;99.90;;;;;;5030243;28;20422;-37
2021/08/03 03:30:56;;;;;;;9.30;8.27;;;13.20;99.90;;;;;;5037590;28;20429;-37
2021/08/03 03:33:23;;;;;;;10.27;7.70;;;13.20;99.90;;;;;;5028674;28;20435;-37
2021/08/03 03:35:51;;;;;;;9.90;7.40;;;13.10;99.90;;;;;;5036046;28;21085;-37
2021/08/03 03:38:22;;;;;;;8.87;7.07;;;13.10;99.90;;;;;;5039933;28;20901;-37
2021/08/03 03:40:49;;;;;;;8.50;7.70;;;13.00;99.90;;;;;;5029185;28;20461;-37
2021/08/03 03:43:18;;;;;;;10.73;8.67;;;13.00;99.90;;;;;;5039046;28;20421;-37
2021/08/03 03:45:54;;;;;;;8.93;8.03;;;13.10;99.90;;;;;;5028637;28;20541;-37
2021/08/03 03:48:21;;;;;;;8.83;7.87;;;13.10;99.90;;;;;;5028295;28;20451;-37
2021/08/03 03:50:50;;;;;;;8.23;7.43;;;13.20;99.90;;;;;;5037783;28;20421;-37
2021/08/03 03:53:24;;;;;;;12.10;7.30;;;13.30;99.90;;;;;;5036600;28;20429;-37
2021/08/03 03:55:52;;;;;;;8.17;7.37;;;13.30;99.90;;;;;;5028852;28;20437;-37
2021/08/03 03:58:18;;;;;;;7.90;7.10;;;13.30;99.90;;;;;;5034041;28;20433;-38
2021/08/03 04:00:44;;;;;;;7.67;6.97;;;13.40;99.90;;;;;;5028717;28;20522;-37
2021/08/03 04:03:11;;;;;;;8.73;7.20;;;13.40;99.90;;;;;;5028485;28;20487;-37
2021/08/03 04:05:40;;;;;;;8.50;7.63;;;13.40;99.90;;;;;;5038843;28;20488;-37
2021/08/03 04:08:10;;;;;;;8.90;6.77;;;13.40;99.90;;;;;;5036620;28;20440;-37
2021/08/03 04:10:37;;;;;;;8.03;7.10;;;13.30;99.90;;;;;;5033698;28;20424;-37
2021/08/03 04:13:04;;;;;;;8.07;7.33;;;13.30;99.90;;;;;;5029346;28;20749;-37
2021/08/03 04:15:33;;;;;;;8.47;6.90;;;13.30;99.90;;;;;;5028353;28;20459;-37
2021/08/03 04:17:59;;;;;;;8.10;7.30;;;13.30;99.90;;;;;;5028269;28;20464;-37
2021/08/03 04:20:25;;;;;;;7.80;7.00;;;13.20;99.90;;;;;;5032946;28;20444;-37
2021/08/03 04:22:51;;;;;;;9.07;7.50;;;13.20;99.90;;;;;;5029434;28;20417;-37
2021/08/03 04:25:17;;;;;;;8.77;7.87;;;13.30;99.90;;;;;;5032499;28;20439;-37
2021/08/03 04:27:43;;;;;;;10.63;8.33;;;13.30;99.90;;;;;;5033613;28;20914;-37
2021/08/03 04:30:12;;;;;;;9.00;8.07;;;13.40;99.90;;;;;;5040502;28;20595;-37
2021/08/03 04:32:37;;;;;;;9.80;8.90;;;13.40;99.90;;;;;;5028444;28;20214;-37
2021/08/03 04:35:04;;;;;;;8.53;7.70;;;13.40;99.90;;;;;;5028189;28;20807;-37
2021/08/03 04:37:39;;;;;;;8.40;7.60;;;13.40;99.90;;;;;;5036804;28;20419;-37
2021/08/03 04:40:06;;;;;;;9.03;8.07;;;13.30;99.90;;;;;;5028116;28;20427;-37
2021/08/03 04:42:32;;;;;;;9.07;7.53;;;13.40;99.90;;;;;;5031504;28;20507;-37
2021/08/03 04:44:57;;;;;;;9.77;7.90;;;13.30;99.90;;;;;;5030526;28;20456;-37
2021/08/03 04:47:23;;;;;;;9.63;8.73;;;13.30;99.90;;;;;;5027915;28;20460;-37
2021/08/03 04:49:49;;;;;;;8.33;7.53;;;13.30;99.90;;;;;;5028737;28;20218;-37
2021/08/03 04:52:14;;;;;;;9.40;8.40;;;13.30;99.90;;;;;;5036968;28;20185;-37
2021/08/03 04:54:40;;;;;;;9.70;8.67;;;13.30;99.90;;;;;;5040016;28;20205;-37
2021/08/03 04:57:06;;;;;;;9.30;7.80;;;13.30;99.90;;;;;;5027618;28;20194;-37
2021/08/03 04:59:31;;;;;;;12.80;8.30;;;13.40;99.90;;;;;;5028657;28;20202;-37
2021/08/03 05:01:57;;;;;;;9.13;8.23;;;13.40;99.90;;;;;;5026673;28;20267;-37
2021/08/03 05:04:22;;;;;;;10.10;9.10;;;13.50;99.90;;;;;;5029657;28;20201;-37
2021/08/03 05:06:48;;;;;;;9.37;8.47;;;13.40;99.90;;;;;;5036692;28;20205;-37
2021/08/03 05:09:14;;;;;;;10.43;9.37;;;13.50;99.90;;;;;;5042663;28;20772;-37
2021/08/03 05:11:39;;;;;;;10.30;8.77;;;13.50;99.90;;;;;;5027582;28;20266;-37
2021/08/03 05:14:05;;;;;;;10.13;9.00;;;13.50;99.90;;;;;;5037593;28;20776;-37
2021/08/03 05:16:31;;;;;;;10.23;8.40;;;13.50;99.90;;;;;;5027591;28;20198;-37
2021/08/03 05:18:57;;;;;;;9.27;8.37;;;13.50;99.90;;;;;;5027281;28;20198;-38
2021/08/03 05:21:22;;;;;;;9.47;8.57;;;13.50;99.90;;;;;;5035412;28;20251;-37
2021/08/03 05:23:48;;;;;;;9.63;8.40;;;13.50;99.90;;;;;;5034354;28;20218;-37
2021/08/03 05:26:13;;;;;;;8.93;7.70;;;13.50;99.90;;;;;;5027405;28;20198;-37
2021/08/03 05:28:39;;;;;;;8.73;7.83;;;13.60;99.90;;;;;;5032738;28;20193;-37
2021/08/03 05:31:05;;;;;;;9.77;8.77;;;13.60;99.90;;;;;;5035359;28;20209;-37
2021/08/03 05:33:30;;;;;;;8.97;7.67;;;13.60;99.90;;;;;;5027165;28;20205;-37
2021/08/03 05:35:56;;;;;;;9.73;8.83;;;13.60;99.90;;;;;;5033554;28;20196;-37
2021/08/03 05:38:21;;;;;;;11.60;9.37;;;13.60;99.90;;;;;;5041512;28;20205;-37
2021/08/03 05:40:47;;;;;;;9.67;8.47;;;13.70;99.90;;;;;;5035759;28;20218;-37
2021/08/03 05:43:13;;;;;;;8.90;8.00;;;13.70;99.90;;;;;;5028140;28;20193;-37
2021/08/03 05:45:38;;;;;;;9.73;8.50;;;13.70;99.90;;;;;;5027480;28;20187;-37
2021/08/03 05:48:05;;;;;;;8.53;7.73;;;13.70;99.90;;;;;;5027113;28;20209;-37
2021/08/03 05:50:30;;;;;;;9.77;8.87;;;13.70;99.90;;;;;;5029639;28;20190;-37
2021/08/03 05:52:56;;;;;;;10.30;9.30;;;13.80;99.90;;;;;;5037256;28;21105;-37
2021/08/03 05:55:21;;;;;;;8.77;7.87;;;13.90;99.90;;;;;;5037421;28;20185;-37
2021/08/03 05:57:47;;;;;;;11.03;8.57;;;13.90;99.90;;;;;;5037372;28;20198;-37
2021/08/03 06:00:13;;;;;;;11.17;9.43;;;13.90;99.90;;;;;;5036257;28;20186;-37
2021/08/03 06:02:39;;;;;;;10.37;9.27;;;13.90;99.90;;;;;;5044448;28;20220;-37
2021/08/03 06:05:06;;;;;;;10.00;8.97;;;14.00;99.90;;;;;;5031678;28;20938;-37
2021/08/03 06:07:41;;;;;;;10.10;9.20;;;14.00;99.90;;;;;;5031480;28;20489;-37
2021/08/03 06:10:11;;;;;;;9.60;8.70;;;14.00;99.90;;;;;;5034633;28;20473;-37
2021/08/03 06:12:39;;;;;;;10.70;9.60;;;14.00;99.90;;;;;;5027209;28;20787;-37
2021/08/03 06:15:06;;;;;;;12.03;9.73;;;14.00;99.90;;;;;;5031697;28;20439;-37
2021/08/03 06:17:38;;;;;;;10.90;9.80;;;14.10;99.90;;;;;;5025762;28;20513;-37
2021/08/03 06:20:05;;;;;;;13.63;10.87;;;14.10;99.90;;;;;;5025775;28;20437;-37
2021/08/03 06:22:38;;;;;;;9.90;9.00;;;14.10;99.90;;;;;;5034752;28;20475;-37
2021/08/03 06:25:06;;;;;;;11.10;10.00;;;14.10;99.90;;;;;;5036720;28;20420;-37
2021/08/03 06:27:33;;;;;;;9.67;8.77;;;14.10;99.90;;;;;;5032412;28;20495;-37
2021/08/03 06:30:05;;;;;;;13.00;9.97;;;14.20;99.90;;;;;;5037989;28;20429;-37
2021/08/03 06:32:31;;;;;;;12.53;10.60;;;14.20;99.90;;;;;;5036818;28;20421;-37
2021/08/03 06:34:58;;;;;;;11.53;10.37;;;14.30;99.90;;;;;;5035922;28;20465;-37
2021/08/03 06:37:23;;;;;;;11.43;10.33;;;14.30;99.90;;;;;;5038700;28;20760;-37
2021/08/03 06:39:49;;;;;;;11.90;10.60;;;14.30;99.90;;;;;;5037724;28;20496;-37
2021/08/03 06:42:34;;;;;;;12.77;11.47;;;14.30;99.90;;;;;;5037314;28;20743;-37
2021/08/03 06:45:07;;;;;;;12.37;11.10;;;14.30;99.90;;;;;;5036997;28;20862;-37
2021/08/03 06:48:10;;;;;;;11.73;10.70;;;14.40;99.90;;;;;;5038289;28;20458;-38
2021/08/03 06:50:44;;;;;;;13.70;10.73;;;14.40;99.90;;;;;;5037693;28;20504;-37
2021/08/03 06:53:12;;;;;;;13.50;11.13;;;14.30;99.90;;;;;;5036910;28;20523;-37
2021/08/03 06:55:45;;;;;;;12.13;10.93;;;14.30;99.90;;;;;;5040512;28;20420;-37
2021/08/03 06:58:23;;;;;;;10.40;9.33;;;14.40;99.90;;;;;;5035393;28;20494;-37
2021/08/03 07:00:52;;;;;;;11.00;9.90;;;14.40;99.90;;;;;;5036832;28;20531;-37
2021/08/03 07:03:23;;;;;;;11.50;10.00;;;14.40;99.90;;;;;;5033683;28;20471;-38
2021/08/03 07:05:53;;;;;;;10.87;9.00;;;14.30;99.90;;;;;;5043398;28;20428;-38
2021/08/03 07:08:20;;;;;;;10.47;9.47;;;14.30;99.90;;;;;;5037913;28;20440;-37
2021/08/03 07:10:49;;;;;;;10.80;9.80;;;14.30;99.90;;;;;;5045479;28;20421;-38
2021/08/03 07:13:17;;;;;;;9.57;8.57;;;14.30;99.90;;;;;;5029655;28;20432;-37
2021/08/03 07:15:44;;;;;;;10.23;9.10;;;14.30;99.90;;;;;;5046091;28;21037;-37
2021/08/03 07:18:11;;;;;;;11.57;8.73;;;14.30;99.90;;;;;;5049203;28;20421;-38
2021/08/03 07:20:41;;;;;;;9.87;8.80;;;14.40;99.90;;;;;;5046601;28;20501;-37
2021/08/03 07:23:09;;;;;;;10.20;8.70;;;14.50;99.90;;;;;;5040928;28;20428;-38
2021/08/03 07:25:35;;;;;;;10.33;8.20;;;14.50;99.90;;;;;;5034637;28;20823;-37
2021/08/03 07:28:01;;;;;;;10.03;9.03;;;14.50;99.90;;;;;;5029340;28;20431;-37
2021/08/03 07:30:27;;;;;;;10.73;8.13;;;14.50;99.90;;;;;;5037650;28;20417;-37
2021/08/03 07:32:52;;;;;;;12.27;8.90;;;14.60;99.90;;;;;;5043929;28;20412;-37
2021/08/03 07:35:18;;;;;;;9.03;8.03;;;14.60;99.90;;;;;;5034621;28;20429;-37
2021/08/03 07:37:44;;;;;;;10.20;9.20;;;14.70;99.90;;;;;;5034118;28;20182;-37
2021/08/03 07:40:10;;;;;;;11.80;8.70;;;14.70;99.90;;;;;;5032749;28;20194;-38
2021/08/03 07:42:36;;;;;;;10.67;9.60;;;14.80;99.90;;;;;;5042854;28;20214;-37
2021/08/03 07:45:03;;;;;;;11.53;9.53;;;14.80;99.90;;;;;;5040605;28;20433;-37
2021/08/03 07:47:29;;;;;;;10.83;9.73;;;14.80;99.90;;;;;;5037189;28;20188;-37
2021/08/03 07:49:55;;;;;;;12.93;11.63;;;14.80;99.90;;;;;;5036485;28;21082;-37
2021/08/03 07:52:20;;;;;;;12.00;10.20;;;14.90;99.90;;;;;;5044325;28;20229;-37
2021/08/03 07:54:46;;;;;;;11.03;9.73;;;14.80;99.90;;;;;;5041090;28;20273;-37
2021/08/03 07:57:12;;;;;;;12.07;10.87;;;14.80;99.90;;;;;;5031229;28;20193;-37
2021/08/03 07:59:38;;;;;;;10.13;9.17;;;14.80;99.90;;;;;;5032853;28;20536;-37
2021/08/03 08:02:03;;;;;;;11.40;10.07;;;14.80;99.90;;;;;;5044908;28;20864;-37
2021/08/03 08:04:29;;;;;;;11.30;10.20;;;14.80;99.90;;;;;;5030819;28;20272;-38
2021/08/03 08:06:55;;;;;;;11.73;9.80;;;14.80;99.90;;;;;;5035549;28;20643;-37
2021/08/03 08:09:20;;;;;;;12.20;9.83;;;14.90;99.90;;;;;;5040562;28;20234;-37
2021/08/03 08:11:46;;;;;;;12.00;10.80;;;14.90;99.90;;;;;;5036910;28;20291;-37
2021/08/03 08:14:12;;;;;;;10.40;9.37;;;14.90;99.90;;;;;;5031835;28;20726;-37
2021/08/03 08:16:37;;;;;;;9.93;9.00;;;14.90;99.90;;;;;;5036357;28;20190;-37
2021/08/03 08:19:03;;;;;;;10.70;9.60;;;14.90;99.90;;;;;;5027442;28;20810;-37
2021/08/03 08:21:33;;;;;;;12.67;9.10;;;14.90;99.90;;;;;;5029451;28;20804;-37
2021/08/03 08:24:00;;;;;;;13.60;9.23;;;15.00;99.90;;;;;;5041141;28;20185;-37
2021/08/03 08:26:25;;;;;;;10.87;8.33;;;15.00;99.90;;;;;;5033281;28;20425;-37
2021/08/03 08:28:51;;;;;;;9.60;8.70;;;15.00;99.90;;;;;;5026914;28;20460;-37
2021/08/03 08:31:17;;;;;;;9.20;8.20;;;15.10;99.90;;;;;;5028757;28;20212;-38
2021/08/03 08:33:42;;;;;;;9.40;8.27;;;15.10;99.90;;;;;;5028143;28;20198;-37
2021/08/03 08:36:08;;;;;;;8.50;6.47;;;15.10;99.90;;;;;;5027798;28;20190;-37
2021/08/03 08:38:34;;;;;;;10.50;7.03;;;15.10;99.90;;;;;;5027328;28;20240;-38
2021/08/03 08:41:00;;;;;;;8.87;7.87;;;15.10;99.90;;;;;;5038218;28;20217;-37
2021/08/03 08:43:26;;;;;;;9.63;6.80;;;15.20;99.90;;;;;;5029678;28;20193;-38
2021/08/03 08:45:55;;;;;;;6.77;6.17;;;15.20;99.90;;;;;;5031487;28;20437;-37
2021/08/03 08:48:21;;;;;;;9.13;7.10;;;15.20;99.90;;;;;;5027857;28;20218;-37
2021/08/03 08:50:51;;;;;;;7.90;7.10;;;15.30;99.90;;;;;;5027636;28;20487;-38
2021/08/03 08:53:17;;;;;;;8.30;7.17;;;15.30;99.90;;;;;;5036187;28;20409;-37
2021/08/03 08:55:42;;;;;;;8.53;7.20;;;15.30;99.90;;;;;;5037357;28;20406;-37
2021/08/03 08:58:08;;;;;;;9.00;7.13;;;15.40;99.90;;;;;;5027101;28;20985;-38
2021/08/03 09:00:34;;;;;;;7.73;6.93;;;15.50;99.90;;;;;;5038311;28;20203;-38
2021/08/03 09:02:59;;;;;;;7.67;6.87;;;15.50;99.90;;;;;;5030760;28;20198;-37
2021/08/03 09:05:43;;;;;;;8.13;7.20;;;15.60;99.90;;;;;;5044957;28;20192;-37
2021/08/03 09:08:11;;;;;;;9.10;8.13;;;15.70;99.90;;;;;;5030691;28;20205;-38
2021/08/03 09:10:42;;;;;;;9.47;7.80;;;15.70;99.90;;;;;;5033016;28;20432;-37
2021/08/03 09:13:20;;;;;;;9.80;8.33;;;15.80;99.90;;;;;;5027433;28;20421;-38
2021/08/03 09:16:00;;;;;;;9.87;8.53;;;15.90;99.90;;;;;;5036416;28;20441;-38
2021/08/03 09:18:39;;;;;;;9.30;8.37;;;15.90;99.90;;;;;;5027563;28;20452;-37
2021/08/03 09:21:05;;;;;;;9.67;8.53;;;15.90;99.90;;;;;;5033029;28;20451;-38
2021/08/03 09:23:46;;;;;;;10.53;9.13;;;16.00;99.90;;;;;;5041385;28;20475;-39
2021/08/03 09:26:13;;;;;;;10.63;9.40;;;16.00;99.90;;;;;;5040971;28;20798;-38
2021/08/03 09:29:00;;;;;;;11.23;10.13;;;16.10;99.90;;;;;;5031053;28;20429;-37
2021/08/03 09:31:27;;;;;;;10.23;9.23;;;16.30;99.90;;;;;;5026489;28;20460;-38
2021/08/03 09:33:53;;;;;;;10.73;8.90;;;16.40;99.90;;;;;;5026964;28;20429;-37
2021/08/03 09:36:52;;;;;;;10.20;8.43;;;16.50;99.90;;;;;;5028118;28;20440;-38
2021/08/03 09:39:39;;;;;;;9.40;8.43;;;16.60;99.90;;;;;;5040770;28;20247;-38
2021/08/03 09:42:34;;;;;;;11.17;9.00;;;16.70;99.90;;;;;;5036945;28;20461;-37
2021/08/03 09:45:07;;;;;;;8.83;7.93;;;16.80;99.90;;;;;;5027110;28;20424;-37
2021/08/03 09:47:36;;;;;;;8.53;7.13;;;17.00;99.90;;;;;;5032982;28;20583;-38
2021/08/03 09:50:06;;;;;;;9.30;7.47;;;17.10;99.90;;;;;;5039487;28;20515;-38
2021/08/03 09:52:35;;;;;;;8.23;7.43;;;17.20;99.90;;;;;;5034459;28;20468;-38
2021/08/03 09:55:18;;;;;;;6.97;6.27;;;17.20;99.90;;;;;;5042018;28;21265;-38
2021/08/03 09:57:46;;;;;;;6.93;5.13;;;17.40;99.90;;;;;;5043130;28;20424;-38
2021/08/03 10:00:36;;;;;;;6.67;5.47;;;17.40;99.90;;;;;;5031354;28;20432;-37
2021/08/03 10:03:02;;;;;;;5.40;4.90;;;17.50;99.90;;;;;;5028686;28;20424;-38
2021/08/03 10:05:30;;;;;;;10.53;4.50;;;17.60;99.90;;;;;;5030152;28;20413;-38
2021/08/03 10:07:56;;;;;;;6.10;5.23;;;17.70;99.90;;;;;;5035157;28;20428;-38
2021/08/03 10:10:22;;;;;;;7.93;6.00;;;17.80;99.90;;;;;;5042437;28;20413;-38
2021/08/03 10:12:48;;;;;;;5.97;5.37;;;17.90;99.90;;;;;;5042548;28;20440;-38
2021/08/03 10:15:14;;;;;;;6.20;5.33;;;18.00;99.90;;;;;;5033801;28;20190;-38
2021/08/03 10:17:40;;;;;;;5.23;4.70;;;18.00;99.90;;;;;;5030104;28;20198;-37
2021/08/03 10:20:08;;;;;;;6.30;5.10;;;18.10;99.90;;;;;;5030392;28;20516;-38
2021/08/03 10:22:42;;;;;;;6.80;5.13;;;18.10;99.90;;;;;;5036002;28;20463;-37
2021/08/03 10:25:11;;;;;;;6.87;5.40;;;18.20;99.90;;;;;;5042421;28;20409;-37
2021/08/03 10:27:52;;;;;;;5.37;4.87;;;18.30;99.90;;;;;;5040252;28;20425;-39
2021/08/03 10:30:30;;;;;;;6.40;5.30;;;18.30;99.90;;;;;;5037815;28;20428;-38
2021/08/03 10:33:00;;;;;;;5.50;5.00;;;18.40;99.90;;;;;;5038454;28;20423;-38
2021/08/03 10:35:47;;;;;;;6.27;4.90;;;18.40;99.90;;;;;;5038867;28;21194;-38
2021/08/03 10:38:17;;;;;;;5.47;4.97;;;18.40;99.90;;;;;;5038030;28;20428;-37
2021/08/03 10:40:49;;;;;;;6.00;4.20;;;18.50;99.90;;;;;;5041179;28;20458;-39
2021/08/03 10:43:23;;;;;;;4.70;4.20;;;18.60;99.90;;;;;;5037338;28;20452;-38
2021/08/03 10:46:08;;;;;;;4.80;4.30;;;18.60;99.90;;;;;;5040620;28;20458;-37
2021/08/03 10:48:40;;;;;;;5.07;4.57;;;18.60;99.90;;;;;;5033135;28;21223;-38
2021/08/03 10:51:17;;;;;;;4.20;3.80;;;18.50;99.90;;;;;;5040261;28;20447;-38
2021/08/03 10:54:01;;;;;;;5.30;4.80;;;18.60;99.90;;;;;;5037474;28;20500;-38
2021/08/03 10:56:28;;;;;;;4.37;4.00;;;18.60;99.90;;;;;;5043343;28;20434;-37
2021/08/03 10:59:37;;;;;;;5.17;4.67;;;18.50;99.90;;;;;;5036640;28;20421;-38
2021/08/03 11:02:05;;;;;;;6.20;4.00;;;18.50;99.90;;;;;;5030061;28;20456;-38
2021/08/03 11:04:43;;;;;;;5.27;3.90;;;18.40;99.90;;;;;;5033996;28;20431;-39
2021/08/03 11:07:27;;;;;;;4.13;3.50;;;18.40;99.90;;;;;;5047667;28;20461;-38
2021/08/03 11:09:58;;;;;;;5.03;4.53;;;18.30;99.90;;;;;;5040593;28;20433;-37
2021/08/03 11:12:40;;;;;;;5.10;4.63;;;18.30;99.90;;;;;;5040979;28;20830;-38
2021/08/03 11:15:21;;;;;;;7.30;4.40;;;18.30;99.90;;;;;;5038248;28;20416;-38
2021/08/03 11:17:56;;;;;;;5.43;4.53;;;18.30;99.90;;;;;;5035611;28;20428;-38
2021/08/03 11:20:37;;;;;;;4.10;3.53;;;18.20;99.90;;;;;;5039932;28;21003;-37
2021/08/03 11:23:04;;;;;;;4.60;3.90;;;18.20;99.90;;;;;;5038155;28;20436;-38
2021/08/03 11:25:30;;;;;;;5.00;4.50;;;18.10;99.90;;;;;;5040762;28;20425;-38
2021/08/03 11:28:08;;;;;;;4.63;4.10;;;18.10;99.90;;;;;;5034573;28;20480;-38
2021/08/03 11:30:33;;;;;;;6.30;4.20;;;18.00;99.90;;;;;;5038517;28;20580;-38
2021/08/03 11:32:59;;;;;;;4.40;4.00;;;18.00;99.90;;;;;;5038805;28;21034;-38
2021/08/03 11:35:29;;;;;;;4.63;4.13;;;18.00;99.90;;;;;;5037951;28;20724;-38
2021/08/03 11:37:55;;;;;;;5.50;4.00;;;18.00;99.90;;;;;;5038812;28;20441;-38
2021/08/03 11:40:21;;;;;;;4.37;4.00;;;18.00;99.90;;;;;;5042600;28;20420;-38
2021/08/03 11:42:48;;;;;;;4.60;4.03;;;18.00;99.90;;;;;;5040051;28;20206;-38
2021/08/03 11:45:22;;;;;;;4.57;4.10;;;17.90;99.90;;;;;;5038217;28;20193;-38
2021/08/03 11:47:49;;;;;;;4.80;3.67;;;18.00;99.90;;;;;;5037194;28;20502;-38
2021/08/03 11:50:18;;;;;;;6.00;3.80;;;17.90;99.90;;;;;;5035783;28;20639;-38
2021/08/03 11:52:44;;;;;;;5.20;3.83;;;17.90;99.90;;;;;;5044309;28;20412;-38
2021/08/03 11:55:14;;;;;;;5.57;4.37;;;18.00;99.90;;;;;;5045336;28;20499;-38
2021/08/03 11:57:43;;;;;;;8.70;4.47;;;18.00;99.90;;;;;;5039300;28;20488;-37
2021/08/03 12:00:13;;;;;;;5.20;4.63;;;18.00;99.90;;;;;;5042768;28;20444;-38
2021/08/03 12:02:40;;;;;;;4.80;4.30;;;18.00;99.90;;;;;;5033292;28;20598;-37
2021/08/03 12:05:08;;;;;;;5.47;4.97;;;18.00;99.90;;;;;;5037936;28;20524;-37
2021/08/03 12:07:35;;;;;;;7.73;4.57;;;17.80;99.90;;;;;;5046615;28;20416;-37
2021/08/03 12:10:01;;;;;;;5.97;5.57;;;17.80;99.90;;;;;;5034625;28;20446;-37
2021/08/03 12:12:26;;;;;;;50.10;12.07;;;17.70;99.90;;;;;;5040864;28;20437;-37
2021/08/03 12:15:07;;;;;;;7.10;5.93;;;17.70;99.90;;;;;;5028390;28;20952;-37
2021/08/03 12:17:34;;;;;;;5.43;5.00;;;17.70;99.90;;;;;;5037070;28;20217;-37
2021/08/03 12:20:23;;;;;;;5.70;5.20;;;17.70;99.90;;;;;;5028406;28;20424;-37
2021/08/03 12:22:49;;;;;;;5.00;4.33;;;17.60;99.90;;;;;;5035980;28;21002;-37
2021/08/03 12:25:15;;;;;;;6.70;5.37;;;17.50;99.90;;;;;;5039385;28;20446;-38
2021/08/03 12:27:43;;;;;;;5.40;4.90;;;17.50;99.90;;;;;;5033867;28;20425;-37
2021/08/03 12:30:33;;;;;;;27.77;7.67;;;17.50;99.90;;;;;;5035438;28;20174;-38
2021/08/03 12:32:58;;;;;;;5.23;4.83;;;17.50;99.90;;;;;;5022090;28;21281;-37
2021/08/03 12:35:24;;;;;;;6.97;4.73;;;17.50;99.90;;;;;;5028171;28;20417;-37
2021/08/03 12:37:50;;;;;;;5.97;5.37;;;17.40;99.90;;;;;;5030299;28;20198;-37
2021/08/03 12:40:33;;;;;;;4.27;3.97;;;17.50;99.90;;;;;;5042752;28;20670;-37
2021/08/03 12:43:00;;;;;;;5.03;4.40;;;17.50;99.90;;;;;;5035357;28;20190;-38
2021/08/03 12:45:27;;;;;;;5.17;4.70;;;17.60;99.90;;;;;;5027927;28;20413;-37
2021/08/03 12:47:58;;;;;;;6.67;5.57;;;17.60;99.90;;;;;;5026700;28;20951;-37
2021/08/03 12:50:25;;;;;;;6.17;5.10;;;17.60;99.90;;;;;;5031877;28;20432;-37
2021/08/03 12:53:01;;;;;;;10.00;5.27;;;17.60;99.90;;;;;;5028913;28;20508;-37
2021/08/03 12:55:42;;;;;;;6.57;5.33;;;17.60;99.90;;;;;;5038177;28;20789;-37